No requiere especial atencion con respecto al clima.   -   No hay Alarmas

Informes de METAR cercanos

 

LEXJ - Santander/Parayas, Spain
Distance from station: ESE 6km
Actualización: 22/09/2018 21:00
Despejado
Despejado
 Viento del ONO
Viento: ONO 7 km/h
Temperatura: 20°C
Rocío: 17°C
Humedad: 83%
Barómetro: 1024 hPa
Resumen: Despejado
Visibility: greater than 10 km
2018/09/22 19:00 LEXJ 221900Z 29004KT CAVOK 20/17 Q1024
LEBB - Bilbao/Sondica, Spain
Distance from station: ESE 80km
Actualización: 22/09/2018 21:00
Despejado
Despejado
 Viento del ONO
Viento: ONO 6 km/h
Temperatura: 22°C
Rocío: 17°C
Humedad: 73%
Barómetro: 1024 hPa
Resumen: Despejado
Visibility: greater than 10 km
2018/09/22 19:00 LEBB 221900Z 30003KT 180V320 CAVOK 22/17 Q1024 NOSIG
 
LEBL - Barcelona Airpor, Spain
Distance from station: ESE 726km
Actualización: 22/09/2018 21:00
Despejado
Despejado
 Viento del SO
Viento: SO 17 km/h
Temperatura: 25°C
Rocío: 22°C
Humedad: 83%
Barómetro: 1021 hPa
Resumen: Despejado
Visibility: greater than 10 km
2018/09/22 19:00 LEBL 221900Z 22009KT CAVOK 25/22 Q1021 NOSIG
LEMD - Madrid/Barajas, Spain
Distance from station: S 325km
Actualización: 22/09/2018 21:00
Despejado
Despejado
 Viento del S
Viento: S 7 km/h
Temperatura: 31°C
Rocío: 9°C
Humedad: 25%
Barómetro: 1023 hPa
Resumen: Despejado
Visibility: greater than 10 km
2018/09/22 19:00 LEMD 221900Z 19004KT CAVOK 31/09 Q1023 NOSIG
 
LPPT - Lisbon/Portela, Portugal
Distance from station: SO 663km
Actualización: 22/09/2018 21:00
Despejado
Despejado
 Viento del NO
Viento: NO 24 km/h
Temperatura: 25°C
Rocío: 15°C
Humedad: 54%
Barómetro: 1020 hPa
Resumen: Despejado
Visibility: greater than 10 km
2018/09/22 19:00 LPPT 221900Z 32013KT CAVOK 25/15 Q1020
LECO - La Coruna/Alvedr, Spain
Distance from station: O 349km
Actualización: 22/09/2018 21:00
Despejado
Despejado
 Viento del varies
Viento: varies 4 km/h
Temperatura: 20°C
Rocío: 17°C
Humedad: 83%
Barómetro: 1024 hPa
Resumen: Despejado
Visibility: greater than 10 km
2018/09/22 19:00 LECO 221900Z VRB02KT CAVOK 20/17 Q1024 NOSIG
 
LEST - Santiago/Labacol, Spain
Distance from station: O 358km
Actualización: 22/09/2018 21:00
Despejado
Despejado
 Viento del NNE
Viento: NNE 13 km/h
Temperatura: 20°C
Rocío: 18°C
Humedad: 88%
Barómetro: 1025 hPa
Resumen: Despejado
Visibility: greater than 10 km
2018/09/22 19:00 LEST 221900Z 03007KT 360V070 CAVOK 20/18 Q1025 NOSIG
EBBR - Brussels International Airport, Belgium
Distance from station: O 1339km
Actualización: 22/09/2018 21:20
Lluvia débil, Muy nuboso
Lluvia débil, Muy nuboso
 Viento del SE
Viento: SE 6 km/h
Temperatura: 10°C
Rocío: 10°C
Humedad: 100%
Barómetro: 1018 hPa
Resumen: Lluvia débil
Clouds: Muy nuboso
Visibility: 8 km
Cloud details: Few Clouds 183 m
Parcialmente nuboso 396 m
Muy nuboso 610 m
2018/09/22 19:20 EBBR 221920Z 14003KT 8000 -RA FEW006 SCT013 BKN020 10/10 Q1018 TEMPO BKN012